createdAt,value
2023-03-07T00:02:00.266Z,2.10
2023-03-07T00:07:02.519Z,1.98
2023-03-07T00:12:04.928Z,1.77
2023-03-07T00:17:07.632Z,1.40
2023-03-07T00:22:11.818Z,1.60
2023-03-07T00:27:14.841Z,1.40
2023-03-07T00:32:17.588Z,1.55
2023-03-07T00:37:19.697Z,1.88
2023-03-07T00:42:21.844Z,2.13
2023-03-07T00:47:23.900Z,3.20
2023-03-07T00:52:26.013Z,3.22
2023-03-07T00:57:28.098Z,2.80
2023-03-07T01:02:30.167Z,3.67
2023-03-07T01:07:32.271Z,4.78
2023-03-07T01:12:35.263Z,4.88
2023-03-07T01:17:37.693Z,6.20
2023-03-07T01:22:41.160Z,5.95
2023-03-07T01:27:43.373Z,8.55
2023-03-07T01:32:45.557Z,8.43
2023-03-07T01:37:51.810Z,9.15
2023-03-07T01:42:54.184Z,10.45
2023-03-07T01:47:58.432Z,9.80
2023-03-07T01:53:01.145Z,9.07
2023-03-07T01:58:07.089Z,8.75
2023-03-07T02:03:17.046Z,7.35
2023-03-07T02:08:22.066Z,6.53
2023-03-07T02:13:24.377Z,6.22
2023-03-07T02:18:30.227Z,5.53
2023-03-07T02:24:00.807Z,6.05
2023-03-07T02:29:03.118Z,5.15
2023-03-07T02:34:20.785Z,5.10
2023-03-07T02:39:26.374Z,5.18
2023-03-07T02:44:29.275Z,5.65
2023-03-07T02:49:31.784Z,5.35
2023-03-07T02:54:34.133Z,5.45
2023-03-07T02:59:37.077Z,5.88
2023-03-07T03:04:39.426Z,5.93
2023-03-07T03:09:41.739Z,5.45
2023-03-07T03:14:43.976Z,5.85
2023-03-07T03:19:46.868Z,4.93
2023-03-07T03:24:48.923Z,4.95
2023-03-07T03:29:55.655Z,4.60
2023-03-07T03:34:58.211Z,4.30
2023-03-07T03:40:00.510Z,4.50
2023-03-07T03:45:02.829Z,4.53
2023-03-07T03:50:06.684Z,4.07
2023-03-07T03:55:09.485Z,4.00
2023-03-07T04:00:15.791Z,4.00
2023-03-07T04:05:18.438Z,4.13
2023-03-07T04:10:20.637Z,3.63
2023-03-07T04:15:22.758Z,4.03
2023-03-07T04:20:24.928Z,3.95
2023-03-07T04:25:27.212Z,4.10
2023-03-07T04:30:29.577Z,4.30
2023-03-07T04:35:31.772Z,4.38
2023-03-07T04:40:35.050Z,4.32
2023-03-07T04:45:37.498Z,4.50
2023-03-07T04:50:39.627Z,4.97
2023-03-07T04:55:42.146Z,5.25
2023-03-07T05:00:45.429Z,5.40
2023-03-07T05:05:47.613Z,5.40
2023-03-07T05:10:49.912Z,4.28
2023-03-07T05:15:53.340Z,5.10
2023-03-07T05:20:56.968Z,5.00
2023-03-07T05:25:59.123Z,4.80
2023-03-07T05:31:01.671Z,4.07
2023-03-07T05:36:04.509Z,4.60
2023-03-07T05:41:08.018Z,4.88
2023-03-07T05:46:10.569Z,5.10
2023-03-07T05:51:13.016Z,4.57
2023-03-07T05:56:15.477Z,5.32
2023-03-07T06:01:17.950Z,5.10
2023-03-07T06:06:20.621Z,4.93
2023-03-07T06:11:22.921Z,5.18
2023-03-07T06:16:25.235Z,5.25
2023-03-07T06:21:27.675Z,5.85
2023-03-07T06:26:30.296Z,5.70
2023-03-07T06:31:32.821Z,6.18
2023-03-07T06:36:35.425Z,5.80
2023-03-07T06:41:37.923Z,6.20
2023-03-07T06:46:40.941Z,6.22
2023-03-07T06:51:48.481Z,5.15
2023-03-07T06:56:51.632Z,5.80
2023-03-07T07:01:57.178Z,6.55
2023-03-07T07:06:59.504Z,5.22
2023-03-07T07:12:04.923Z,4.80
2023-03-07T07:17:09.019Z,6.70
2023-03-07T07:22:12.123Z,6.07
2023-03-07T07:27:14.489Z,7.78
2023-03-07T07:32:17.428Z,8.15
2023-03-07T07:37:19.844Z,5.78
2023-03-07T07:42:21.962Z,5.07
2023-03-07T07:47:48.275Z,7.18
2023-03-07T07:52:53.270Z,7.35
2023-03-07T07:57:56.213Z,5.90
2023-03-07T08:02:59.024Z,6.13
2023-03-07T08:08:01.188Z,7.85
2023-03-07T08:13:03.351Z,9.02
2023-03-07T08:18:05.409Z,10.05
2023-03-07T08:23:07.620Z,8.27
2023-03-07T08:28:09.734Z,11.43
2023-03-07T08:33:11.760Z,10.77
2023-03-07T08:38:13.833Z,9.52
2023-03-07T08:43:15.865Z,9.18
2023-03-07T08:48:17.947Z,11.38
2023-03-07T08:53:20.816Z,12.57
2023-03-07T08:58:22.997Z,12.75
2023-03-07T09:03:25.046Z,12.35
2023-03-07T09:08:27.323Z,12.55
2023-03-07T09:13:29.505Z,11.93
2023-03-07T09:18:31.828Z,11.20
2023-03-07T09:23:34.114Z,11.75
2023-03-07T09:28:36.339Z,10.88
2023-03-07T09:33:40.686Z,10.35
2023-03-07T09:38:42.761Z,10.43
2023-03-07T09:44:01.222Z,10.32
2023-03-07T09:49:40.481Z,10.18
2023-03-07T09:54:55.762Z,10.33
2023-03-07T10:00:29.765Z,8.57
2023-03-07T10:05:36.511Z,10.73
2023-03-07T10:10:47.214Z,9.20
2023-03-07T10:15:55.533Z,7.15
2023-03-07T10:21:18.589Z,7.22
2023-03-07T10:26:31.946Z,8.20
2023-03-07T10:31:39.334Z,9.82
2023-03-07T10:36:44.673Z,10.07
2023-03-07T10:41:46.974Z,11.18
2023-03-07T10:46:57.389Z,12.75
2023-03-07T10:52:05.247Z,13.02
2023-03-07T10:57:11.267Z,15.05
2023-03-07T11:02:28.574Z,13.82
2023-03-07T11:07:32.080Z,13.65
2023-03-07T11:12:45.109Z,12.95
2023-03-07T11:17:48.317Z,12.57
2023-03-07T11:23:07.513Z,13.00
2023-03-07T11:28:41.320Z,11.32
2023-03-07T11:34:08.726Z,10.93
2023-03-07T11:39:27.727Z,9.30
2023-03-07T11:44:54.371Z,8.88
2023-03-07T11:49:59.040Z,9.43
2023-03-07T11:55:23.095Z,10.10
2023-03-07T12:00:47.666Z,10.77
2023-03-07T12:06:09.926Z,11.27
2023-03-07T12:11:30.766Z,9.90
2023-03-07T12:16:56.860Z,8.75
2023-03-07T12:22:17.102Z,8.73
2023-03-07T12:27:29.999Z,8.23
2023-03-07T12:32:35.296Z,7.22
2023-03-07T12:37:44.380Z,7.13
2023-03-07T12:43:07.727Z,6.88
2023-03-07T12:48:28.834Z,6.07
2023-03-07T12:53:40.184Z,6.63
2023-03-07T12:58:49.382Z,5.00
2023-03-07T13:04:29.818Z,5.30
2023-03-07T13:09:35.734Z,4.70
2023-03-07T13:14:43.760Z,3.30
2023-03-07T13:19:54.592Z,3.53
2023-03-07T13:25:00.453Z,4.53
2023-03-07T13:30:04.376Z,4.22
2023-03-07T13:35:09.509Z,2.78
2023-03-07T13:40:30.456Z,2.50
2023-03-07T13:45:38.423Z,1.48
2023-03-07T13:50:49.514Z,1.48
2023-03-07T13:56:01.996Z,1.50
2023-03-07T14:01:12.963Z,1.40
2023-03-07T14:11:24.384Z,1.40
2023-03-07T14:16:37.688Z,1.70
2023-03-07T14:21:51.832Z,1.90
2023-03-07T14:26:59.458Z,1.95
2023-03-07T14:32:01.751Z,1.85
2023-03-07T14:37:12.131Z,1.90
2023-03-07T14:42:22.959Z,2.57
2023-03-07T14:47:40.217Z,2.58
2023-03-07T14:52:43.311Z,3.45
2023-03-07T14:57:49.476Z,3.90
2023-03-07T15:02:56.200Z,3.55
2023-03-07T15:07:58.598Z,4.28
2023-03-07T15:13:02.242Z,3.90
2023-03-07T15:18:21.417Z,5.30
2023-03-07T15:23:27.544Z,5.28
2023-03-07T15:28:33.655Z,5.97
2023-03-07T15:33:35.990Z,6.15
2023-03-07T15:38:42.517Z,6.25
2023-03-07T15:43:44.694Z,7.93
2023-03-07T15:48:51.678Z,7.90
2023-03-07T15:53:59.590Z,6.13
2023-03-07T15:59:22.187Z,6.85
2023-03-07T16:04:35.902Z,5.60
2023-03-07T16:09:38.576Z,5.95
2023-03-07T16:14:40.877Z,6.60
2023-03-07T16:19:43.105Z,6.88
2023-03-07T16:24:45.464Z,7.75
2023-03-07T16:29:53.404Z,9.98
2023-03-07T16:34:55.479Z,8.02
2023-03-07T16:39:57.637Z,7.78
2023-03-07T16:44:59.796Z,9.77
2023-03-07T16:50:02.091Z,5.78
2023-03-07T16:55:04.574Z,5.43
2023-03-07T17:00:07.682Z,5.97
2023-03-07T17:05:27.342Z,6.40
2023-03-07T17:10:29.426Z,6.82
2023-03-07T17:15:32.199Z,9.25
2023-03-07T17:20:34.366Z,5.95
2023-03-07T17:25:36.437Z,7.43
2023-03-07T17:30:42.185Z,6.45
2023-03-07T17:35:44.348Z,8.68
2023-03-07T17:40:46.466Z,6.88
2023-03-07T17:45:49.174Z,5.85
2023-03-07T17:50:51.325Z,7.78
2023-03-07T17:55:53.444Z,6.95
2023-03-07T18:00:55.770Z,7.53
2023-03-07T18:05:59.149Z,6.13
2023-03-07T18:11:04.952Z,7.43
2023-03-07T18:16:10.488Z,7.75
2023-03-07T18:21:15.415Z,7.22
2023-03-07T18:26:19.177Z,6.95
2023-03-07T18:31:30.641Z,7.75
2023-03-07T18:36:32.782Z,6.70
2023-03-07T18:41:34.851Z,5.90
2023-03-07T18:46:38.274Z,7.90
2023-03-07T18:51:42.672Z,6.22
2023-03-07T18:56:46.685Z,5.75
2023-03-07T19:01:50.155Z,5.43
2023-03-07T19:06:52.472Z,5.00
2023-03-07T19:11:54.644Z,5.15
2023-03-07T19:16:56.725Z,7.13
2023-03-07T19:21:59.094Z,5.25
2023-03-07T19:27:01.227Z,5.93
2023-03-07T19:32:03.472Z,5.78
2023-03-07T19:37:05.662Z,5.88
2023-03-07T19:42:07.835Z,5.43
2023-03-07T19:47:09.985Z,5.40
2023-03-07T19:52:12.232Z,5.15
2023-03-07T19:57:16.025Z,5.47
2023-03-07T20:02:19.548Z,5.70
2023-03-07T20:07:21.985Z,8.85
2023-03-07T20:12:24.124Z,7.78
2023-03-07T20:17:26.299Z,5.32
2023-03-07T20:22:28.588Z,5.53
2023-03-07T20:27:30.768Z,5.82
2023-03-07T20:32:32.825Z,5.68
2023-03-07T20:37:35.910Z,5.47
2023-03-07T20:42:38.134Z,5.18
2023-03-07T20:47:40.804Z,5.10
2023-03-07T20:52:42.898Z,5.35
2023-03-07T20:57:45.125Z,6.57
2023-03-07T21:02:48.273Z,11.20
2023-03-07T21:07:50.488Z,8.73
2023-03-07T21:12:53.170Z,7.13
2023-03-07T21:17:55.922Z,8.10
2023-03-07T21:22:58.055Z,7.63
2023-03-07T21:28:00.195Z,7.55
2023-03-07T21:33:02.501Z,6.90
2023-03-07T21:38:04.621Z,7.03
2023-03-07T21:43:06.671Z,7.82
2023-03-07T21:48:09.014Z,8.02
2023-03-07T21:53:11.833Z,8.35
2023-03-07T21:58:13.913Z,8.23
2023-03-07T22:03:16.010Z,8.38
2023-03-07T22:08:20.442Z,8.77
2023-03-07T22:13:22.544Z,8.52
2023-03-07T22:18:25.223Z,7.93
2023-03-07T22:23:27.290Z,9.00
2023-03-07T22:28:29.824Z,8.23
2023-03-07T22:33:32.404Z,8.00
2023-03-07T22:38:35.253Z,8.80
2023-03-07T22:43:38.145Z,8.82
2023-03-07T22:48:41.185Z,8.63
2023-03-07T22:53:43.749Z,9.75
2023-03-07T22:58:45.963Z,9.75
2023-03-07T23:03:49.992Z,10.52
2023-03-07T23:08:53.312Z,11.05
2023-03-07T23:13:55.702Z,11.48
2023-03-07T23:18:59.035Z,12.18
2023-03-07T23:24:02.302Z,12.23
2023-03-07T23:29:06.492Z,13.07
2023-03-07T23:34:14.860Z,13.15
2023-03-07T23:39:17.581Z,13.00
2023-03-07T23:44:19.694Z,14.38
2023-03-07T23:49:22.066Z,14.30
2023-03-07T23:54:24.141Z,14.88
2023-03-07T23:59:26.166Z,16.30
